메인 페이지
METAR-TAF:

METAR-TAF

공항 :

스프링필드 / Chicopee, 매사추세츠, 미국

위도: 42-12N, 경도: 072-32W, 고도: 75m

현재 날씨관측

예보는 1 시간 3분 전, 02:56시(UTC)에 발표되었습니다.
북서16kt, 순간 최대 풍속 25kt
온도 -4°C
습도 33%
기압 1008 hPa
시정: 16.1km
맑음

METAR: KCEF 050256Z 32016G25KT 10SM CLR M04/M18 A2976 RMK AO2A PK WND 32028/19 SLP086 T10401179 52008

시각: 22:59 (03:59 UTC)

예보

예보는 7 시간 59분 전, 20:00시(UTC)에 발표되었습니다.
예보 대상 시간: 04일 20시부터 06일 02시까지 (UTC)
북서10kt, 순간 최대 풍속 15kt
시정 10km 이상
고도 4500ft 상공 구름 조금
고도 10000ft 상공 구름 보통
일시적
04일 20시부터 05일 22시까지 (UTC)
북북서20kt, 순간 최대 풍속 30kt

TAF: KCEF 042000Z 0420/0602 32010G15KT 9999 FEW045 SCT100 510103 QNH2970INS TEMPO 0420/0522 34020G30KT 520004 TX03/0420Z TNM09/0512Z

4,000개 이상의 공항 관측 자료 및 예보 (METAR 및 TAF 보고).

지도상에서 검색 가능한 기상관측소가 노란 점과 빨간 점으로 표시되어 있습니다.

기상관측소 명을 보려면 표시 위로 마우스를 이동하세요.

날씨 관측과 예보를 보려면 클릭하세요.

지도 변경 : 확대하려면 엑스 표시가 있는 녹색 버튼, 축소하려면 빼기 표시가 있는 녹색 버튼, 다음 페이지의 지도를 보려면 녹색 화살표를 클릭하세요.


METAR-TAF: